Time;durP1;ratioP1;P1;durP2;ratioP2;P2;SDS_P1;SDS_P2;PMS_P1;PMS_P2;Temp;Humidity;BMP_temperature;BMP_pressure;BME280_temperature;BME280_humidity;BME280_pressure;Samples;Min_cycle;Max_cycle;Signal;HPM_P1;HPM_P2
2023/04/12 00:00:35;;;;;;;3.10;1.10;;;21.10;35.00;;;;;;5039665;28;20021;-52
2023/04/12 00:03:06;;;;;;;4.05;1.00;;;21.10;35.00;;;;;;5041697;28;20033;-51
2023/04/12 00:05:33;;;;;;;3.22;1.00;;;21.10;35.00;;;;;;5038865;28;20022;-53
2023/04/12 00:08:02;;;;;;;2.35;0.90;;;21.10;35.10;;;;;;5037700;28;20084;-53
2023/04/12 00:10:27;;;;;;;4.53;0.90;;;21.10;35.10;;;;;;5036945;28;20029;-51
2023/04/12 00:12:53;;;;;;;2.90;1.10;;;21.10;35.10;;;;;;5039308;28;20056;-50
2023/04/12 00:15:19;;;;;;;2.10;0.80;;;21.10;35.20;;;;;;5040203;28;20030;-51
2023/04/12 00:17:45;;;;;;;3.05;1.13;;;21.00;35.20;;;;;;5042438;28;20440;-50
2023/04/12 00:20:11;;;;;;;2.00;0.65;;;21.00;35.30;;;;;;5037260;28;22364;-49
2023/04/12 00:22:40;;;;;;;2.70;1.00;;;21.00;35.30;;;;;;5041488;28;20060;-52
2023/04/12 00:25:06;;;;;;;1.67;0.70;;;21.00;35.40;;;;;;5037110;28;20022;-52
2023/04/12 00:27:32;;;;;;;3.25;1.10;;;21.00;35.40;;;;;;5042828;28;20021;-50
2023/04/12 00:29:57;;;;;;;2.42;0.85;;;21.00;35.50;;;;;;5039149;28;20467;-49
2023/04/12 00:32:23;;;;;;;3.53;1.00;;;21.00;35.60;;;;;;5037687;28;20048;-52
2023/04/12 00:34:50;;;;;;;4.35;1.08;;;21.00;35.60;;;;;;5038089;28;20211;-52
2023/04/12 00:37:19;;;;;;;2.88;1.00;;;21.00;35.70;;;;;;5040947;28;20112;-50
2023/04/12 00:39:45;;;;;;;3.88;1.08;;;21.00;35.70;;;;;;5038064;28;20041;-50
2023/04/12 00:42:11;;;;;;;3.17;0.98;;;21.00;35.80;;;;;;5034894;28;20030;-50
2023/04/12 00:44:37;;;;;;;2.22;0.80;;;21.00;35.90;;;;;;5037709;28;20127;-50
2023/04/12 00:47:04;;;;;;;2.67;0.80;;;21.00;36.00;;;;;;5036217;28;20025;-47
2023/04/12 00:49:30;;;;;;;1.90;0.70;;;21.00;36.00;;;;;;5038805;28;20037;-51
2023/04/12 00:52:03;;;;;;;1.83;1.00;;;21.00;36.10;;;;;;5037301;28;20036;-51
2023/04/12 00:54:32;;;;;;;2.13;0.70;;;21.00;36.10;;;;;;5037917;28;20045;-48
2023/04/12 00:56:59;;;;;;;1.63;0.85;;;21.00;36.20;;;;;;5035357;28;20044;-49
2023/04/12 00:59:26;;;;;;;1.33;0.57;;;21.00;36.30;;;;;;5040908;28;20033;-52
2023/04/12 01:01:53;;;;;;;2.05;0.70;;;20.90;36.30;;;;;;5041960;28;20044;-52
2023/04/12 01:04:21;;;;;;;2.25;0.88;;;21.00;36.40;;;;;;5041071;28;20036;-50
2023/04/12 01:07:03;;;;;;;2.90;0.77;;;20.90;36.40;;;;;;5039122;28;20037;-52
2023/04/12 01:10:08;;;;;;;1.70;0.80;;;20.90;36.50;;;;;;5038901;28;20029;-50
2023/04/12 01:13:01;;;;;;;2.72;0.90;;;20.90;36.50;;;;;;5037906;28;20037;-49
2023/04/12 01:15:31;;;;;;;3.15;0.73;;;20.90;36.60;;;;;;5035630;28;20037;-45
2023/04/12 01:18:08;;;;;;;1.70;0.60;;;21.00;36.70;;;;;;5045798;28;20029;-53
2023/04/12 01:20:47;;;;;;;1.58;0.70;;;21.00;36.80;;;;;;5034899;28;20033;-47
2023/04/12 01:23:33;;;;;;;1.55;0.50;;;21.00;36.90;;;;;;5038452;28;20125;-47
2023/04/12 01:26:01;;;;;;;1.83;0.65;;;20.90;36.90;;;;;;5039070;28;20044;-48
2023/04/12 01:28:34;;;;;;;1.63;0.60;;;21.00;37.00;;;;;;5037744;28;20040;-46
2023/04/12 01:31:02;;;;;;;2.55;0.60;;;21.00;37.00;;;;;;5040368;28;20025;-47
2023/04/12 01:33:30;;;;;;;2.45;0.70;;;21.00;37.00;;;;;;5035237;28;20045;-49
2023/04/12 01:36:05;;;;;;;2.63;0.93;;;21.00;37.10;;;;;;5036907;28;20392;-52
2023/04/12 01:38:32;;;;;;;1.98;0.57;;;21.00;37.10;;;;;;5035978;28;20039;-49
2023/04/12 01:40:59;;;;;;;1.42;0.65;;;20.90;37.20;;;;;;5034385;28;20356;-49
2023/04/12 01:43:25;;;;;;;1.65;0.80;;;21.00;37.20;;;;;;5041788;28;20171;-52
2023/04/12 01:45:51;;;;;;;1.75;0.55;;;21.00;37.20;;;;;;5032940;28;20049;-50
2023/04/12 01:48:17;;;;;;;1.83;0.50;;;20.90;37.20;;;;;;5036330;28;20469;-49
2023/04/12 01:51:04;;;;;;;1.70;0.65;;;20.90;37.20;;;;;;5038999;28;20025;-52
2023/04/12 01:53:56;;;;;;;1.42;0.60;;;21.00;37.40;;;;;;5034794;28;20120;-53
2023/04/12 01:56:26;;;;;;;1.55;0.47;;;21.00;37.40;;;;;;5037851;28;20452;-52
2023/04/12 01:58:54;;;;;;;1.27;0.60;;;20.90;37.40;;;;;;5021688;28;20037;-50
2023/04/12 02:01:21;;;;;;;1.75;0.80;;;20.90;37.40;;;;;;5040834;28;20112;-50
2023/04/12 02:03:50;;;;;;;1.80;0.60;;;21.00;37.50;;;;;;5037614;28;20121;-53
2023/04/12 02:06:19;;;;;;;1.85;0.60;;;21.00;37.50;;;;;;5035401;28;20072;-54
2023/04/12 02:08:46;;;;;;;1.63;0.50;;;21.00;37.60;;;;;;5042474;28;20033;-51
2023/04/12 02:11:13;;;;;;;1.50;0.60;;;21.00;37.60;;;;;;5038089;28;20113;-48
2023/04/12 02:13:39;;;;;;;1.52;0.57;;;21.00;37.70;;;;;;5034739;28;20056;-53
2023/04/12 02:16:09;;;;;;;3.13;1.02;;;20.90;37.70;;;;;;5037702;28;20033;-51
2023/04/12 02:18:35;;;;;;;0.85;0.50;;;21.00;37.80;;;;;;5038204;28;20034;-48
2023/04/12 02:21:01;;;;;;;2.70;0.70;;;21.00;37.80;;;;;;5035909;28;20026;-49
2023/04/12 02:23:27;;;;;;;1.38;0.70;;;21.00;37.80;;;;;;5035555;28;20407;-53
2023/04/12 02:25:53;;;;;;;3.58;0.68;;;21.00;37.80;;;;;;5035399;28;20404;-50
2023/04/12 02:28:19;;;;;;;1.77;0.60;;;21.00;37.80;;;;;;5037041;28;20021;-51
2023/04/12 02:30:45;;;;;;;1.73;0.63;;;21.00;37.80;;;;;;5041058;28;20034;-50
2023/04/12 02:33:12;;;;;;;1.83;0.70;;;21.00;37.80;;;;;;5047759;28;20059;-50
2023/04/12 02:35:40;;;;;;;1.95;0.60;;;21.00;37.90;;;;;;5045465;28;20037;-51
2023/04/12 02:38:10;;;;;;;1.30;0.50;;;21.00;37.90;;;;;;5041613;28;20103;-52
2023/04/12 02:40:39;;;;;;;1.25;0.50;;;20.90;37.80;;;;;;5043018;28;20453;-51
2023/04/12 02:43:08;;;;;;;1.60;0.60;;;21.00;37.80;;;;;;5045874;28;20098;-52
2023/04/12 02:45:37;;;;;;;2.25;0.52;;;21.00;37.80;;;;;;5046135;28;20073;-49
2023/04/12 02:48:04;;;;;;;1.45;0.60;;;21.00;37.90;;;;;;5044062;28;20333;-48
2023/04/12 02:50:30;;;;;;;1.10;0.50;;;20.90;37.70;;;;;;5046314;28;20039;-50
2023/04/12 02:53:04;;;;;;;1.60;0.60;;;20.90;37.80;;;;;;5048186;28;20041;-49
2023/04/12 02:55:30;;;;;;;1.85;0.60;;;21.00;37.80;;;;;;5050291;28;20432;-52
2023/04/12 02:57:58;;;;;;;0.80;0.35;;;21.00;37.80;;;;;;5046407;28;20514;-49
2023/04/12 03:00:24;;;;;;;1.70;0.60;;;20.90;37.70;;;;;;5048918;28;20041;-50
2023/04/12 03:02:57;;;;;;;2.00;0.63;;;20.90;37.70;;;;;;5053388;28;20112;-52
2023/04/12 03:05:26;;;;;;;2.58;0.80;;;20.90;37.80;;;;;;5045451;28;20029;-49
2023/04/12 03:07:52;;;;;;;1.55;0.50;;;21.00;37.80;;;;;;5044780;28;20356;-50
2023/04/12 03:10:23;;;;;;;0.93;0.45;;;20.90;37.70;;;;;;5048065;28;20116;-53
2023/04/12 03:12:58;;;;;;;1.58;0.65;;;20.90;37.70;;;;;;5054092;28;20051;-53
2023/04/12 03:15:31;;;;;;;1.20;0.40;;;20.90;37.70;;;;;;5044857;28;20043;-51
2023/04/12 03:17:58;;;;;;;1.50;0.40;;;20.90;37.70;;;;;;5042959;28;20025;-49
2023/04/12 03:20:28;;;;;;;1.20;0.43;;;21.00;37.70;;;;;;5054571;28;20040;-52
2023/04/12 03:23:06;;;;;;;0.65;0.38;;;20.90;37.70;;;;;;5045698;28;20359;-53
2023/04/12 03:25:36;;;;;;;1.52;0.57;;;20.90;37.70;;;;;;5048618;28;20123;-48
2023/04/12 03:28:28;;;;;;;2.75;0.60;;;21.00;37.70;;;;;;5043023;28;20047;-51
2023/04/12 03:30:54;;;;;;;1.52;0.50;;;20.90;37.70;;;;;;5047265;28;20191;-52
2023/04/12 03:33:23;;;;;;;1.30;0.60;;;20.90;37.70;;;;;;5065037;28;20041;-51
2023/04/12 03:35:54;;;;;;;2.17;0.55;;;20.90;37.70;;;;;;5050786;28;20032;-51
2023/04/12 03:38:20;;;;;;;1.38;0.50;;;20.90;37.80;;;;;;5047856;28;20029;-50
2023/04/12 03:40:46;;;;;;;2.53;0.65;;;20.90;37.80;;;;;;5047368;28;20099;-52
2023/04/12 03:43:12;;;;;;;1.50;0.68;;;20.90;37.80;;;;;;5049782;28;20033;-49
2023/04/12 03:45:40;;;;;;;2.65;0.73;;;20.90;37.80;;;;;;5046717;28;20075;-53
2023/04/12 03:48:06;;;;;;;1.08;0.45;;;20.90;37.80;;;;;;5046783;28;20044;-49
2023/04/12 03:50:43;;;;;;;1.83;0.60;;;20.90;37.80;;;;;;5048906;28;20029;-52
2023/04/12 03:53:11;;;;;;;1.33;0.50;;;20.90;37.80;;;;;;5040329;28;20049;-53
2023/04/12 03:55:40;;;;;;;1.08;0.60;;;20.90;37.80;;;;;;5046274;28;20039;-51
2023/04/12 03:58:07;;;;;;;1.58;0.57;;;20.90;37.80;;;;;;5045628;28;20053;-50
2023/04/12 04:00:40;;;;;;;1.63;0.73;;;20.90;37.80;;;;;;5046699;28;20129;-52
2023/04/12 04:03:08;;;;;;;3.08;0.70;;;20.90;37.90;;;;;;5044271;28;20086;-53
2023/04/12 04:05:54;;;;;;;1.95;0.63;;;20.90;37.90;;;;;;5044524;28;20037;-53
2023/04/12 04:08:20;;;;;;;1.45;0.50;;;20.90;37.90;;;;;;5045446;28;20361;-51
2023/04/12 04:10:50;;;;;;;0.90;0.50;;;20.90;37.90;;;;;;5044476;28;20353;-49
2023/04/12 04:13:17;;;;;;;2.22;0.50;;;20.90;37.90;;;;;;5047536;28;20422;-52
2023/04/12 04:15:43;;;;;;;2.53;0.50;;;20.90;38.00;;;;;;5046183;28;20057;-49
2023/04/12 04:18:09;;;;;;;1.60;0.63;;;20.90;38.00;;;;;;5045861;28;20067;-48
2023/04/12 04:20:36;;;;;;;1.23;0.40;;;20.90;38.00;;;;;;5048117;28;20118;-49
2023/04/12 04:23:02;;;;;;;0.90;0.60;;;20.90;38.00;;;;;;5046497;28;20111;-51
2023/04/12 04:25:29;;;;;;;1.20;0.40;;;20.90;38.00;;;;;;5047469;28;20360;-46
2023/04/12 04:27:58;;;;;;;2.13;0.40;;;20.90;38.00;;;;;;5046225;28;20040;-47
2023/04/12 04:30:27;;;;;;;1.92;0.45;;;20.90;38.10;;;;;;5044276;28;20025;-47
2023/04/12 04:32:53;;;;;;;1.42;0.55;;;20.90;38.10;;;;;;5045472;28;20539;-50
2023/04/12 04:35:23;;;;;;;1.52;0.50;;;20.90;38.10;;;;;;5043066;28;20033;-51
2023/04/12 04:38:09;;;;;;;1.90;0.50;;;20.90;38.10;;;;;;5046923;28;20032;-52
2023/04/12 04:40:37;;;;;;;2.65;0.70;;;20.90;38.20;;;;;;5040713;28;20365;-51
2023/04/12 04:43:03;;;;;;;0.98;0.35;;;20.90;38.20;;;;;;5042948;28;20029;-50
2023/04/12 04:45:35;;;;;;;1.00;0.50;;;20.90;38.20;;;;;;5001001;28;1182992;-50
2023/04/12 04:48:02;;;;;;;1.20;0.35;;;20.90;38.20;;;;;;5047077;28;20039;-47
2023/04/12 04:50:28;;;;;;;1.05;0.50;;;20.90;38.20;;;;;;5046453;28;20056;-51
2023/04/12 04:52:54;;;;;;;0.88;0.40;;;20.90;38.20;;;;;;5046745;28;20037;-54
2023/04/12 04:55:20;;;;;;;2.53;0.63;;;20.90;38.20;;;;;;5045895;28;20875;-49
2023/04/12 04:57:46;;;;;;;1.60;0.57;;;20.90;38.40;;;;;;5044546;28;20096;-50
2023/04/12 05:00:15;;;;;;;1.48;0.52;;;20.90;38.30;;;;;;5044802;28;20373;-54
2023/04/12 05:02:44;;;;;;;2.63;0.47;;;20.90;38.30;;;;;;5042363;28;20060;-54
2023/04/12 05:05:16;;;;;;;1.10;0.43;;;20.90;38.30;;;;;;5046358;28;20360;-48
2023/04/12 05:07:44;;;;;;;2.47;0.55;;;20.90;38.40;;;;;;5046338;28;20129;-50
2023/04/12 05:10:10;;;;;;;1.30;0.47;;;20.90;38.40;;;;;;5048723;28;20503;-52
2023/04/12 05:12:39;;;;;;;2.75;0.77;;;20.90;38.40;;;;;;5061463;28;20045;-51
2023/04/12 05:15:08;;;;;;;1.40;0.63;;;20.90;38.40;;;;;;5046118;28;20021;-51
2023/04/12 05:17:34;;;;;;;2.03;0.60;;;20.90;38.50;;;;;;5044895;28;20041;-52
2023/04/12 05:20:00;;;;;;;0.70;0.47;;;20.90;38.50;;;;;;5048062;28;20031;-49
2023/04/12 05:22:28;;;;;;;1.10;0.50;;;20.90;38.50;;;;;;5046481;28;20032;-53
2023/04/12 05:24:54;;;;;;;1.42;0.60;;;20.90;38.50;;;;;;5045735;28;20036;-49
2023/04/12 05:27:21;;;;;;;0.93;0.47;;;20.90;38.60;;;;;;5048129;28;20020;-51
2023/04/12 05:29:48;;;;;;;1.10;0.50;;;20.90;38.60;;;;;;5044572;28;20125;-52
2023/04/12 05:32:17;;;;;;;1.90;0.82;;;20.80;38.60;;;;;;5043179;28;20113;-50
2023/04/12 05:34:42;;;;;;;1.42;0.50;;;20.80;38.60;;;;;;5045446;28;20117;-50
2023/04/12 05:37:09;;;;;;;0.77;0.40;;;20.90;38.70;;;;;;5046179;28;21262;-50
2023/04/12 05:39:38;;;;;;;1.15;0.45;;;20.90;38.70;;;;;;5045106;28;20025;-50
2023/04/12 05:42:07;;;;;;;1.20;0.60;;;20.80;38.70;;;;;;5045121;28;20136;-52
2023/04/12 05:44:37;;;;;;;1.75;0.60;;;20.80;38.70;;;;;;5044832;28;20505;-52
2023/04/12 05:47:06;;;;;;;1.35;0.52;;;20.90;38.80;;;;;;5059285;28;20103;-52
2023/04/12 05:49:31;;;;;;;1.75;0.60;;;20.80;38.80;;;;;;5047847;28;20044;-49
2023/04/12 05:51:59;;;;;;;1.10;0.50;;;20.90;38.90;;;;;;5045159;28;20102;-54
2023/04/12 05:54:25;;;;;;;0.57;0.40;;;20.90;38.90;;;;;;5045660;28;20457;-52
2023/04/12 05:56:56;;;;;;;0.60;0.40;;;20.80;38.80;;;;;;5044114;28;20139;-52
2023/04/12 05:59:22;;;;;;;2.00;0.60;;;20.80;38.90;;;;;;5043790;28;20364;-47
2023/04/12 06:01:48;;;;;;;1.08;0.40;;;20.80;38.90;;;;;;5042432;28;20040;-51
2023/04/12 06:04:16;;;;;;;0.82;0.43;;;20.90;38.90;;;;;;5043211;28;20033;-48
2023/04/12 06:06:43;;;;;;;1.25;0.40;;;20.80;38.90;;;;;;5043909;28;20025;-49
2023/04/12 06:09:13;;;;;;;0.70;0.45;;;20.90;39.00;;;;;;5042505;28;20115;-49
2023/04/12 06:11:39;;;;;;;0.90;0.40;;;20.80;39.00;;;;;;5044985;28;20059;-52
2023/04/12 06:14:06;;;;;;;0.95;0.45;;;20.80;39.00;;;;;;5043379;28;20432;-49
2023/04/12 06:16:31;;;;;;;0.43;0.30;;;20.80;39.10;;;;;;5044492;28;20120;-50
2023/04/12 06:18:57;;;;;;;0.75;0.38;;;20.80;39.10;;;;;;5045720;28;20121;-50
2023/04/12 06:21:25;;;;;;;0.50;0.40;;;20.80;39.20;;;;;;5043440;28;20048;-49
2023/04/12 06:23:51;;;;;;;1.05;0.45;;;20.80;39.20;;;;;;5043722;28;20029;-49
2023/04/12 06:26:17;;;;;;;0.70;0.40;;;20.80;39.20;;;;;;5051047;28;20031;-51
2023/04/12 06:28:43;;;;;;;0.60;0.22;;;20.80;39.30;;;;;;5046571;28;20470;-48
2023/04/12 06:31:09;;;;;;;0.50;0.38;;;20.80;39.30;;;;;;5043345;28;20029;-50
2023/04/12 06:33:37;;;;;;;1.60;0.40;;;20.80;39.30;;;;;;5040267;28;20033;-50
2023/04/12 06:36:07;;;;;;;1.67;0.40;;;20.80;40.00;;;;;;5041637;28;20449;-52
2023/04/12 06:38:33;;;;;;;0.90;0.32;;;20.80;39.40;;;;;;5040053;28;20464;-49
2023/04/12 06:41:02;;;;;;;1.20;0.60;;;20.80;39.40;;;;;;5044446;28;20045;-53
2023/04/12 06:43:28;;;;;;;1.20;0.63;;;20.80;39.50;;;;;;5039184;28;20476;-52
2023/04/12 06:45:55;;;;;;;2.67;0.80;;;20.80;39.50;;;;;;5042211;28;20052;-49
2023/04/12 06:48:21;;;;;;;4.47;0.75;;;20.80;39.50;;;;;;5042129;28;20033;-52
2023/04/12 06:50:47;;;;;;;2.15;0.90;;;20.80;39.50;;;;;;5037923;28;20036;-53
2023/04/12 06:53:13;;;;;;;3.97;1.10;;;20.80;39.50;;;;;;5041031;28;20033;-50
2023/04/12 06:55:39;;;;;;;5.53;1.40;;;20.80;39.50;;;;;;5039394;28;20422;-52
2023/04/12 06:58:05;;;;;;;3.60;1.70;;;20.90;39.60;;;;;;5044428;28;21596;-53
2023/04/12 07:00:31;;;;;;;4.45;2.10;;;20.90;39.60;;;;;;5038442;28;20059;-52
2023/04/12 07:02:57;;;;;;;4.05;2.20;;;20.90;39.60;;;;;;5040942;28;20099;-50
2023/04/12 07:05:23;;;;;;;4.72;2.50;;;20.90;39.60;;;;;;5043883;28;20041;-50
2023/04/12 07:07:48;;;;;;;5.45;3.15;;;20.90;39.60;;;;;;5039208;28;20064;-51
2023/04/12 07:10:15;;;;;;;4.55;3.13;;;21.00;39.70;;;;;;5066327;28;20037;-52
2023/04/12 07:12:41;;;;;;;7.13;3.65;;;21.00;39.70;;;;;;5039404;28;20067;-49
2023/04/12 07:15:08;;;;;;;6.13;3.78;;;21.00;39.70;;;;;;5036184;28;20056;-51
2023/04/12 07:17:34;;;;;;;5.90;4.25;;;21.00;39.70;;;;;;5045351;28;20039;-49
2023/04/12 07:20:00;;;;;;;6.25;4.53;;;21.00;39.60;;;;;;5063394;28;20024;-52
2023/04/12 07:22:25;;;;;;;7.18;4.95;;;21.10;39.70;;;;;;5069029;28;20094;-51
2023/04/12 07:24:51;;;;;;;7.80;4.82;;;21.10;39.60;;;;;;5054136;28;20424;-51
2023/04/12 07:27:17;;;;;;;7.28;5.70;;;21.20;39.70;;;;;;5040823;28;20045;-52
2023/04/12 07:29:43;;;;;;;7.63;5.95;;;21.20;39.70;;;;;;5041728;28;20029;-52
2023/04/12 07:32:09;;;;;;;8.43;6.35;;;21.20;39.70;;;;;;5041622;28;20029;-48
2023/04/12 07:34:38;;;;;;;6.88;5.10;;;21.20;39.70;;;;;;5039037;28;20029;-55
2023/04/12 07:37:04;;;;;;;6.95;4.90;;;21.20;39.60;;;;;;5045075;28;20342;-48
2023/04/12 07:39:31;;;;;;;5.35;4.13;;;21.30;39.60;;;;;;5043481;28;20491;-48
2023/04/12 07:41:57;;;;;;;7.53;4.30;;;21.30;39.50;;;;;;5042334;28;20047;-51
2023/04/12 07:44:23;;;;;;;10.10;4.22;;;21.30;39.50;;;;;;5044616;28;20049;-52
2023/04/12 07:46:48;;;;;;;5.75;3.70;;;21.40;39.50;;;;;;5046524;28;20033;-50
2023/04/12 07:49:14;;;;;;;6.25;4.22;;;21.40;39.50;;;;;;5040144;28;20028;-51
2023/04/12 07:51:41;;;;;;;4.82;3.83;;;21.40;39.40;;;;;;5048005;28;20052;-49
2023/04/12 07:54:07;;;;;;;5.68;3.40;;;21.40;39.40;;;;;;5049079;28;20444;-50
2023/04/12 07:56:34;;;;;;;5.40;3.92;;;21.50;39.40;;;;;;5051811;28;20056;-49
2023/04/12 07:59:00;;;;;;;5.53;3.83;;;21.50;39.40;;;;;;5046252;28;20040;-51
2023/04/12 08:01:26;;;;;;;4.55;3.53;;;21.50;39.30;;;;;;5042927;28;20037;-53
2023/04/12 08:03:51;;;;;;;4.95;3.45;;;21.60;39.30;;;;;;5039855;28;20052;-49
2023/04/12 08:06:17;;;;;;;5.43;3.42;;;21.60;39.30;;;;;;5049141;28;20432;-51
2023/04/12 08:08:43;;;;;;;6.43;3.42;;;21.60;39.30;;;;;;5052380;28;20111;-51
2023/04/12 08:11:09;;;;;;;4.78;3.78;;;21.60;39.30;;;;;;5057351;28;20387;-53
2023/04/12 08:13:35;;;;;;;5.13;3.60;;;21.70;39.30;;;;;;5054975;28;20032;-50
2023/04/12 08:16:01;;;;;;;5.38;3.20;;;21.70;39.30;;;;;;5055058;28;20032;-48
2023/04/12 08:18:28;;;;;;;4.22;3.33;;;21.70;39.30;;;;;;5058182;28;20432;-47
2023/04/12 08:20:55;;;;;;;4.03;2.97;;;21.70;39.20;;;;;;5054998;28;20029;-52
2023/04/12 08:23:22;;;;;;;4.93;3.47;;;21.80;39.20;;;;;;5054969;28;20106;-49
2023/04/12 08:25:47;;;;;;;5.10;3.75;;;21.80;39.20;;;;;;5055109;28;20025;-53
2023/04/12 08:28:13;;;;;;;4.45;3.10;;;21.80;39.20;;;;;;5055193;28;20017;-52
2023/04/12 08:30:39;;;;;;;5.32;3.63;;;21.80;39.20;;;;;;5054918;28;20455;-50
2023/04/12 08:33:05;;;;;;;5.70;3.90;;;21.80;39.20;;;;;;5054898;28;20462;-50
2023/04/12 08:35:31;;;;;;;4.82;3.45;;;21.80;39.20;;;;;;5054470;28;20017;-53
2023/04/12 08:37:57;;;;;;;6.07;3.75;;;21.80;39.10;;;;;;5054883;28;20025;-52
2023/04/12 08:40:23;;;;;;;4.63;3.38;;;21.90;39.30;;;;;;5054414;28;20032;-51
2023/04/12 08:42:52;;;;;;;4.82;3.75;;;21.90;39.10;;;;;;5056299;28;20399;-51
2023/04/12 08:45:17;;;;;;;3.78;3.13;;;21.90;39.10;;;;;;5054335;28;20405;-49
2023/04/12 08:47:44;;;;;;;5.88;3.75;;;21.90;39.10;;;;;;5053614;28;20067;-51
2023/04/12 08:50:12;;;;;;;4.47;3.28;;;21.90;39.00;;;;;;5054537;28;20021;-48
2023/04/12 08:52:39;;;;;;;5.75;3.85;;;21.90;39.00;;;;;;5054682;28;20411;-52
2023/04/12 08:55:06;;;;;;;5.28;4.18;;;21.90;39.00;;;;;;5054504;28;20107;-46
2023/04/12 08:57:34;;;;;;;6.68;4.57;;;22.00;39.00;;;;;;5054810;28;20029;-50
2023/04/12 09:00:02;;;;;;;6.32;4.53;;;21.90;38.90;;;;;;5054279;28;20037;-51
2023/04/12 09:02:28;;;;;;;5.40;4.68;;;21.90;38.90;;;;;;5054033;28;20021;-51
2023/04/12 09:04:55;;;;;;;6.97;5.70;;;21.90;38.90;;;;;;5054500;28;20459;-50
2023/04/12 09:07:22;;;;;;;7.60;5.53;;;21.90;38.90;;;;;;5051572;28;20021;-48
2023/04/12 09:09:49;;;;;;;8.40;5.45;;;21.90;38.90;;;;;;5055001;28;20036;-50
2023/04/12 09:12:15;;;;;;;7.45;5.18;;;21.90;38.90;;;;;;5051517;28;20024;-48
2023/04/12 09:14:43;;;;;;;7.32;5.40;;;21.90;38.90;;;;;;5054187;28;20090;-50
2023/04/12 09:17:26;;;;;;;8.20;6.07;;;21.90;38.90;;;;;;5053764;28;20041;-51
2023/04/12 09:19:56;;;;;;;8.88;6.10;;;21.90;38.90;;;;;;5048666;28;20040;-52
2023/04/12 09:22:35;;;;;;;8.10;6.68;;;21.90;39.00;;;;;;5051654;28;20071;-48
2023/04/12 09:25:02;;;;;;;9.32;6.65;;;21.90;39.00;;;;;;5051588;28;20028;-49
2023/04/12 09:27:28;;;;;;;9.50;6.55;;;21.90;39.00;;;;;;5054162;28;20071;-52
2023/04/12 09:30:07;;;;;;;10.10;6.25;;;21.90;39.00;;;;;;5053916;28;20029;-45
2023/04/12 09:32:33;;;;;;;9.25;6.43;;;21.90;39.00;;;;;;5051200;28;20468;-49
2023/04/12 09:35:01;;;;;;;9.63;6.75;;;21.90;39.00;;;;;;5053547;28;20058;-50
2023/04/12 09:37:27;;;;;;;9.77;6.55;;;21.90;39.00;;;;;;5053411;28;20036;-51
2023/04/12 09:40:01;;;;;;;8.90;7.22;;;21.90;39.00;;;;;;5053321;28;20035;-51
2023/04/12 09:42:27;;;;;;;10.02;7.22;;;21.90;39.00;;;;;;5053573;28;20037;-47
2023/04/12 09:44:53;;;;;;;9.60;7.55;;;21.90;39.00;;;;;;5053302;28;20375;-48
2023/04/12 09:47:20;;;;;;;10.43;7.93;;;21.90;39.00;;;;;;5053823;28;20098;-48
2023/04/12 09:49:46;;;;;;;9.93;8.15;;;21.90;39.00;;;;;;5049637;28;20427;-50
2023/04/12 09:52:13;;;;;;;10.05;7.43;;;22.00;39.00;;;;;;5041765;28;20617;-48
2023/04/12 09:54:43;;;;;;;9.23;7.72;;;21.90;39.00;;;;;;5047438;28;20036;-48
2023/04/12 09:57:10;;;;;;;9.70;8.07;;;21.90;39.00;;;;;;5053123;28;20021;-48
2023/04/12 09:59:38;;;;;;;10.30;7.88;;;22.00;39.00;;;;;;5052167;28;20052;-51
2023/04/12 10:02:26;;;;;;;11.50;8.80;;;22.00;39.00;;;;;;5050862;28;20029;-49
2023/04/12 10:04:52;;;;;;;8.80;7.60;;;22.00;39.00;;;;;;5051197;28;20123;-48
2023/04/12 10:07:18;;;;;;;10.10;8.48;;;22.00;39.00;;;;;;5051967;28;20386;-50
2023/04/12 10:09:44;;;;;;;11.60;8.43;;;22.00;38.90;;;;;;5053451;28;20017;-49
2023/04/12 10:12:11;;;;;;;12.55;8.80;;;22.00;38.90;;;;;;5052695;28;20451;-52
2023/04/12 10:14:38;;;;;;;11.77;8.85;;;22.00;38.90;;;;;;5053230;28;20036;-50
2023/04/12 10:17:05;;;;;;;12.80;9.27;;;22.00;38.80;;;;;;5053823;28;20021;-47
2023/04/12 10:19:34;;;;;;;11.57;9.27;;;22.00;38.80;;;;;;5053156;28;20047;-53
2023/04/12 10:22:00;;;;;;;12.15;8.82;;;22.00;38.70;;;;;;5052873;28;20423;-53
2023/04/12 10:24:27;;;;;;;11.60;8.80;;;22.00;38.70;;;;;;5052109;28;20364;-49
2023/04/12 10:27:01;;;;;;;12.23;8.70;;;22.00;38.60;;;;;;5052679;28;20024;-48
2023/04/12 10:29:29;;;;;;;11.90;9.43;;;22.00;38.50;;;;;;5052034;28;20025;-47
2023/04/12 10:31:58;;;;;;;11.52;9.23;;;22.00;38.50;;;;;;5049509;28;20033;-54
2023/04/12 10:34:27;;;;;;;13.13;9.60;;;22.00;38.40;;;;;;5050324;28;20040;-52
2023/04/12 10:36:55;;;;;;;20.05;10.43;;;22.00;38.40;;;;;;5051127;28;20032;-47
2023/04/12 10:39:40;;;;;;;13.80;10.35;;;22.00;38.40;;;;;;5045450;28;20517;-51
2023/04/12 10:42:23;;;;;;;14.00;10.93;;;22.00;38.30;;;;;;5051017;28;20044;-50
2023/04/12 10:44:50;;;;;;;14.88;11.20;;;22.00;39.00;;;;;;5052137;28;20052;-53
2023/04/12 10:47:57;;;;;;;15.75;11.23;;;22.00;38.40;;;;;;5053230;28;20107;-50
2023/04/12 10:50:31;;;;;;;14.70;11.50;;;22.00;38.40;;;;;;5039351;28;20029;-50
2023/04/12 10:53:14;;;;;;;15.05;11.23;;;22.10;38.40;;;;;;5041973;28;20037;-49
2023/04/12 10:55:44;;;;;;;14.82;12.20;;;22.00;38.30;;;;;;5047345;28;20059;-49
2023/04/12 10:58:46;;;;;;;13.82;10.73;;;22.10;38.30;;;;;;5044921;28;20053;-51
2023/04/12 11:01:15;;;;;;;13.43;11.02;;;22.00;38.20;;;;;;5066304;28;20029;-48
2023/04/12 11:04:26;;;;;;;13.85;10.90;;;22.00;38.80;;;;;;5046317;28;20037;-51
2023/04/12 11:07:08;;;;;;;14.00;10.88;;;22.00;38.10;;;;;;5031488;28;20037;-49
2023/04/12 11:09:49;;;;;;;13.00;10.77;;;22.00;38.00;;;;;;5025225;28;20025;-53
2023/04/12 11:12:28;;;;;;;12.55;10.70;;;22.00;38.00;;;;;;5030576;28;20037;-53
2023/04/12 11:14:59;;;;;;;13.38;10.85;;;22.00;38.00;;;;;;5041973;28;20037;-49
2023/04/12 11:17:27;;;;;;;13.02;11.52;;;22.00;38.00;;;;;;5051111;28;20036;-50
2023/04/12 11:19:58;;;;;;;12.73;10.30;;;22.00;38.00;;;;;;5036667;28;20084;-52
2023/04/12 11:22:28;;;;;;;13.52;11.13;;;22.00;38.00;;;;;;5052337;28;20038;-54
2023/04/12 11:24:56;;;;;;;15.07;11.75;;;21.90;37.90;;;;;;5056479;28;20095;-51
2023/04/12 11:27:24;;;;;;;15.98;12.52;;;22.00;38.10;;;;;;5052927;28;20021;-53
2023/04/12 11:29:54;;;;;;;17.58;12.77;;;22.00;38.10;;;;;;5054476;28;20032;-56
2023/04/12 11:32:33;;;;;;;15.13;12.15;;;22.00;38.10;;;;;;5051948;28;20025;-48
2023/04/12 11:35:03;;;;;;;14.82;11.20;;;22.00;38.00;;;;;;5041518;28;20064;-54
2023/04/12 11:37:35;;;;;;;15.85;11.57;;;22.00;37.90;;;;;;5047415;28;20136;-54
2023/04/12 11:40:04;;;;;;;15.48;11.80;;;22.00;37.90;;;;;;5040775;28;20059;-51
2023/04/12 11:42:32;;;;;;;14.27;11.05;;;22.00;37.90;;;;;;5042520;28;20075;-52
2023/04/12 11:44:58;;;;;;;15.13;11.65;;;22.00;37.90;;;;;;5043836;28;21469;-55
2023/04/12 11:47:24;;;;;;;15.43;11.90;;;22.00;38.00;;;;;;5039546;28;20032;-52
2023/04/12 11:49:54;;;;;;;16.15;12.15;;;22.00;37.90;;;;;;5052266;28;20025;-54
2023/04/12 11:52:25;;;;;;;13.73;10.98;;;22.00;37.90;;;;;;5044162;28;20033;-52
2023/04/12 11:54:55;;;;;;;14.18;11.10;;;22.10;38.50;;;;;;5044054;28;20499;-48
2023/04/12 11:57:21;;;;;;;13.95;11.35;;;22.10;37.80;;;;;;5038080;28;20447;-47
2023/04/12 11:59:47;;;;;;;16.05;11.35;;;22.00;37.80;;;;;;5035734;28;20044;-52
2023/04/12 12:02:16;;;;;;;14.32;10.93;;;22.00;37.80;;;;;;5040405;28;20032;-50
2023/04/12 12:04:45;;;;;;;15.43;11.02;;;22.10;37.90;;;;;;5042188;28;20123;-46
2023/04/12 12:07:18;;;;;;;13.40;10.02;;;22.10;38.00;;;;;;5043534;28;20087;-49
2023/04/12 12:09:45;;;;;;;12.82;10.40;;;22.10;38.10;;;;;;5078126;28;20040;-45
2023/04/12 12:12:13;;;;;;;15.32;11.23;;;22.10;38.10;;;;;;5058035;28;20106;-46
2023/04/12 12:14:40;;;;;;;14.98;10.95;;;22.10;38.00;;;;;;5065743;28;20104;-55
2023/04/12 12:17:11;;;;;;;15.65;12.35;;;22.10;37.90;;;;;;5055630;28;20021;-51
2023/04/12 12:19:39;;;;;;;14.25;11.48;;;22.10;37.80;;;;;;5066519;28;20326;-52
2023/04/12 12:22:23;;;;;;;14.95;11.32;;;22.10;37.50;;;;;;5056616;28;20040;-55
2023/04/12 12:24:51;;;;;;;;;;;22.20;37.30;;;;;;5056751;28;20102;-50
2023/04/12 12:27:19;;;;;;;14.82;10.00;;;22.30;37.10;;;;;;5056754;28;19909;-51
2023/04/12 12:29:52;;;;;;;13.80;10.57;;;22.30;36.80;;;;;;5056115;28;20053;-49
2023/04/12 12:32:19;;;;;;;13.35;10.43;;;22.40;36.60;;;;;;5065900;28;20056;-51
2023/04/12 12:34:53;;;;;;;14.73;10.88;;;22.50;36.50;;;;;;5057400;28;20032;-52
2023/04/12 12:37:27;;;;;;;14.60;11.15;;;22.60;36.40;;;;;;5056788;28;20086;-49
2023/04/12 12:39:59;;;;;;;13.95;11.55;;;22.70;36.30;;;;;;5057138;28;20036;-53
2023/04/12 12:42:28;;;;;;;13.45;10.68;;;22.80;36.10;;;;;;5053743;28;20475;-56
2023/04/12 12:44:54;;;;;;;12.50;10.88;;;22.90;36.00;;;;;;5064306;28;20067;-51
2023/04/12 12:47:19;;;;;;;14.40;11.00;;;23.00;35.90;;;;;;5056564;28;20099;-53
2023/04/12 12:49:45;;;;;;;13.10;10.45;;;23.00;35.70;;;;;;5055262;28;20035;-54
2023/04/12 12:52:11;;;;;;;13.43;11.27;;;23.10;35.60;;;;;;5055921;28;20021;-55